sensor_id;sensor_type;location;lat;lon;timestamp;temperature;humidity
27306;DHT22;14792;50.886;6.468;2022-10-31T00:00:13;13.70;99.90
27306;DHT22;14792;50.886;6.468;2022-10-31T00:03:15;13.70;99.90
27306;DHT22;14792;50.886;6.468;2022-10-31T00:06:16;13.70;99.90
27306;DHT22;14792;50.886;6.468;2022-10-31T00:09:17;13.70;99.90
27306;DHT22;14792;50.886;6.468;2022-10-31T00:12:19;13.70;99.90
27306;DHT22;14792;50.886;6.468;2022-10-31T00:15:21;13.80;99.90
27306;DHT22;14792;50.886;6.468;2022-10-31T00:18:22;13.80;99.90
27306;DHT22;14792;50.886;6.468;2022-10-31T00:21:24;13.70;99.90
27306;DHT22;14792;50.886;6.468;2022-10-31T00:24:26;13.80;99.90
27306;DHT22;14792;50.886;6.468;2022-10-31T00:27:28;13.80;99.90
27306;DHT22;14792;50.886;6.468;2022-10-31T00:30:29;13.70;99.90
27306;DHT22;14792;50.886;6.468;2022-10-31T00:33:32;13.70;99.90
27306;DHT22;14792;50.886;6.468;2022-10-31T00:36:32;13.80;99.90
27306;DHT22;14792;50.886;6.468;2022-10-31T00:39:34;13.80;99.90
27306;DHT22;14792;50.886;6.468;2022-10-31T00:42:35;13.70;99.90
27306;DHT22;14792;50.886;6.468;2022-10-31T00:45:37;13.70;99.90
27306;DHT22;14792;50.886;6.468;2022-10-31T00:48:39;13.60;99.90
27306;DHT22;14792;50.886;6.468;2022-10-31T00:51:40;13.60;99.90
27306;DHT22;14792;50.886;6.468;2022-10-31T00:54:42;13.70;99.90
27306;DHT22;14792;50.886;6.468;2022-10-31T00:57:46;13.70;99.90
27306;DHT22;14792;50.886;6.468;2022-10-31T01:00:48;13.70;99.90
27306;DHT22;14792;50.886;6.468;2022-10-31T01:03:47;13.70;99.90
27306;DHT22;14792;50.886;6.468;2022-10-31T01:06:48;13.70;99.90
27306;DHT22;14792;50.886;6.468;2022-10-31T01:09:50;13.70;99.90
27306;DHT22;14792;50.886;6.468;2022-10-31T01:12:51;13.70;99.90
27306;DHT22;14792;50.886;6.468;2022-10-31T01:15:57;13.70;99.90
27306;DHT22;14792;50.886;6.468;2022-10-31T01:18:56;13.60;99.90
27306;DHT22;14792;50.886;6.468;2022-10-31T01:21:58;13.60;99.90
27306;DHT22;14792;50.886;6.468;2022-10-31T01:24:59;13.60;99.90
27306;DHT22;14792;50.886;6.468;2022-10-31T01:28:01;13.50;99.90
27306;DHT22;14792;50.886;6.468;2022-10-31T01:31:03;13.50;99.90
27306;DHT22;14792;50.886;6.468;2022-10-31T01:34:04;13.40;99.90
27306;DHT22;14792;50.886;6.468;2022-10-31T01:37:06;13.40;99.90
27306;DHT22;14792;50.886;6.468;2022-10-31T01:40:07;13.30;99.90
27306;DHT22;14792;50.886;6.468;2022-10-31T01:43:11;13.30;99.90
27306;DHT22;14792;50.886;6.468;2022-10-31T01:46:11;13.30;99.90
27306;DHT22;14792;50.886;6.468;2022-10-31T01:49:17;13.20;99.90
27306;DHT22;14792;50.886;6.468;2022-10-31T01:52:19;13.20;99.90
27306;DHT22;14792;50.886;6.468;2022-10-31T01:55:20;13.10;99.90
27306;DHT22;14792;50.886;6.468;2022-10-31T01:58:21;13.10;99.90
27306;DHT22;14792;50.886;6.468;2022-10-31T02:01:21;13.00;99.90
27306;DHT22;14792;50.886;6.468;2022-10-31T02:04:23;12.90;99.90
27306;DHT22;14792;50.886;6.468;2022-10-31T02:07:30;12.90;99.90
27306;DHT22;14792;50.886;6.468;2022-10-31T02:10:30;12.90;99.90
27306;DHT22;14792;50.886;6.468;2022-10-31T02:13:30;12.80;99.90
27306;DHT22;14792;50.886;6.468;2022-10-31T02:16:32;12.80;99.90
27306;DHT22;14792;50.886;6.468;2022-10-31T02:19:57;12.80;99.90
27306;DHT22;14792;50.886;6.468;2022-10-31T02:33:25;12.50;99.90
27306;DHT22;14792;50.886;6.468;2022-10-31T02:36:28;12.50;99.90
27306;DHT22;14792;50.886;6.468;2022-10-31T02:39:37;12.50;99.90
27306;DHT22;14792;50.886;6.468;2022-10-31T02:45:57;12.40;99.90
27306;DHT22;14792;50.886;6.468;2022-10-31T02:48:55;12.30;99.90
27306;DHT22;14792;50.886;6.468;2022-10-31T02:51:56;12.30;99.90
27306;DHT22;14792;50.886;6.468;2022-10-31T02:54:58;12.30;99.90
27306;DHT22;14792;50.886;6.468;2022-10-31T02:58:06;12.30;99.90
27306;DHT22;14792;50.886;6.468;2022-10-31T03:16:48;12.50;99.90
27306;DHT22;14792;50.886;6.468;2022-10-31T03:19:49;12.50;99.90
27306;DHT22;14792;50.886;6.468;2022-10-31T03:22:50;12.40;99.90
27306;DHT22;14792;50.886;6.468;2022-10-31T03:25:52;12.40;99.90
27306;DHT22;14792;50.886;6.468;2022-10-31T03:29:00;12.40;99.90
27306;DHT22;14792;50.886;6.468;2022-10-31T03:32:02;12.30;99.90
27306;DHT22;14792;50.886;6.468;2022-10-31T03:35:02;12.30;99.90
27306;DHT22;14792;50.886;6.468;2022-10-31T03:38:04;12.30;99.90
27306;DHT22;14792;50.886;6.468;2022-10-31T03:41:06;12.40;99.90
27306;DHT22;14792;50.886;6.468;2022-10-31T03:44:16;12.50;99.90
27306;DHT22;14792;50.886;6.468;2022-10-31T03:47:14;12.70;99.90
27306;DHT22;14792;50.886;6.468;2022-10-31T03:50:16;13.00;99.90
27306;DHT22;14792;50.886;6.468;2022-10-31T03:53:30;13.20;99.90
27306;DHT22;14792;50.886;6.468;2022-10-31T03:59:33;13.30;99.90
27306;DHT22;14792;50.886;6.468;2022-10-31T04:02:34;13.40;99.90
27306;DHT22;14792;50.886;6.468;2022-10-31T04:05:35;13.40;99.90
27306;DHT22;14792;50.886;6.468;2022-10-31T04:08:43;13.40;99.90
27306;DHT22;14792;50.886;6.468;2022-10-31T04:11:43;13.40;99.90
27306;DHT22;14792;50.886;6.468;2022-10-31T04:14:43;13.40;99.90
27306;DHT22;14792;50.886;6.468;2022-10-31T04:17:45;13.40;99.90
27306;DHT22;14792;50.886;6.468;2022-10-31T04:20:46;13.40;99.90
27306;DHT22;14792;50.886;6.468;2022-10-31T04:23:48;13.30;99.90
27306;DHT22;14792;50.886;6.468;2022-10-31T04:26:49;13.30;99.90
27306;DHT22;14792;50.886;6.468;2022-10-31T04:29:51;13.30;99.90
27306;DHT22;14792;50.886;6.468;2022-10-31T04:32:53;13.30;99.90
27306;DHT22;14792;50.886;6.468;2022-10-31T04:35:55;13.30;99.90
27306;DHT22;14792;50.886;6.468;2022-10-31T04:38:57;13.20;99.90
27306;DHT22;14792;50.886;6.468;2022-10-31T04:41:58;13.20;99.90
27306;DHT22;14792;50.886;6.468;2022-10-31T04:45:00;13.20;99.90
27306;DHT22;14792;50.886;6.468;2022-10-31T04:48:01;13.20;99.90
27306;DHT22;14792;50.886;6.468;2022-10-31T04:51:03;13.20;99.90
27306;DHT22;14792;50.886;6.468;2022-10-31T04:54:04;13.10;99.90
27306;DHT22;14792;50.886;6.468;2022-10-31T04:57:06;13.10;99.90
27306;DHT22;14792;50.886;6.468;2022-10-31T05:00:08;13.10;99.90
27306;DHT22;14792;50.886;6.468;2022-10-31T05:03:09;13.10;99.90
27306;DHT22;14792;50.886;6.468;2022-10-31T05:06:11;13.10;99.90
27306;DHT22;14792;50.886;6.468;2022-10-31T05:09:13;13.00;99.90
27306;DHT22;14792;50.886;6.468;2022-10-31T05:12:14;13.10;99.90
27306;DHT22;14792;50.886;6.468;2022-10-31T05:15:16;13.10;99.90
27306;DHT22;14792;50.886;6.468;2022-10-31T05:18:18;13.10;99.90
27306;DHT22;14792;50.886;6.468;2022-10-31T05:21:19;13.10;99.90
27306;DHT22;14792;50.886;6.468;2022-10-31T05:24:21;13.10;99.90
27306;DHT22;14792;50.886;6.468;2022-10-31T05:27:22;13.10;99.90
27306;DHT22;14792;50.886;6.468;2022-10-31T05:30:25;13.10;99.90
27306;DHT22;14792;50.886;6.468;2022-10-31T05:33:26;13.10;99.90
27306;DHT22;14792;50.886;6.468;2022-10-31T05:36:27;13.10;99.90
27306;DHT22;14792;50.886;6.468;2022-10-31T05:39:29;13.10;99.90
27306;DHT22;14792;50.886;6.468;2022-10-31T05:42:30;13.10;99.90
27306;DHT22;14792;50.886;6.468;2022-10-31T05:45:32;13.20;99.90
27306;DHT22;14792;50.886;6.468;2022-10-31T05:48:34;13.20;99.90
27306;DHT22;14792;50.886;6.468;2022-10-31T05:51:35;13.20;99.90
27306;DHT22;14792;50.886;6.468;2022-10-31T05:54:37;13.20;99.90
27306;DHT22;14792;50.886;6.468;2022-10-31T05:57:38;13.20;99.90
27306;DHT22;14792;50.886;6.468;2022-10-31T06:00:40;13.20;99.90
27306;DHT22;14792;50.886;6.468;2022-10-31T06:03:42;13.20;99.90
27306;DHT22;14792;50.886;6.468;2022-10-31T06:06:43;13.20;99.90
27306;DHT22;14792;50.886;6.468;2022-10-31T06:09:45;13.30;99.90
27306;DHT22;14792;50.886;6.468;2022-10-31T06:12:47;13.30;99.90
27306;DHT22;14792;50.886;6.468;2022-10-31T06:15:48;13.30;99.90
27306;DHT22;14792;50.886;6.468;2022-10-31T06:18:50;13.30;99.90
27306;DHT22;14792;50.886;6.468;2022-10-31T06:21:51;13.30;99.90
27306;DHT22;14792;50.886;6.468;2022-10-31T06:24:53;13.10;99.90
27306;DHT22;14792;50.886;6.468;2022-10-31T06:27:55;13.00;99.90
27306;DHT22;14792;50.886;6.468;2022-10-31T06:30:57;13.00;99.90
27306;DHT22;14792;50.886;6.468;2022-10-31T06:33:59;13.00;99.90
27306;DHT22;14792;50.886;6.468;2022-10-31T06:37:01;13.00;99.90
27306;DHT22;14792;50.886;6.468;2022-10-31T06:40:02;12.90;99.90
27306;DHT22;14792;50.886;6.468;2022-10-31T06:43:04;12.90;99.90
27306;DHT22;14792;50.886;6.468;2022-10-31T06:46:06;12.90;99.90
27306;DHT22;14792;50.886;6.468;2022-10-31T06:49:07;12.90;99.90
27306;DHT22;14792;50.886;6.468;2022-10-31T06:52:09;12.90;99.90
27306;DHT22;14792;50.886;6.468;2022-10-31T06:55:11;12.90;99.90
27306;DHT22;14792;50.886;6.468;2022-10-31T06:58:12;12.90;99.90
27306;DHT22;14792;50.886;6.468;2022-10-31T07:01:14;12.90;99.90
27306;DHT22;14792;50.886;6.468;2022-10-31T07:04:16;12.90;99.90
27306;DHT22;14792;50.886;6.468;2022-10-31T07:07:17;12.80;99.90
27306;DHT22;14792;50.886;6.468;2022-10-31T07:10:19;12.80;99.90
27306;DHT22;14792;50.886;6.468;2022-10-31T07:13:21;12.70;99.90
27306;DHT22;14792;50.886;6.468;2022-10-31T07:16:22;12.80;99.90
27306;DHT22;14792;50.886;6.468;2022-10-31T07:19:25;12.80;99.90
27306;DHT22;14792;50.886;6.468;2022-10-31T07:22:36;12.90;99.90
27306;DHT22;14792;50.886;6.468;2022-10-31T07:25:40;12.90;99.90
27306;DHT22;14792;50.886;6.468;2022-10-31T07:28:41;13.00;99.90
27306;DHT22;14792;50.886;6.468;2022-10-31T07:31:45;13.10;99.90
27306;DHT22;14792;50.886;6.468;2022-10-31T07:34:45;13.00;99.90
27306;DHT22;14792;50.886;6.468;2022-10-31T07:37:47;13.10;99.90
27306;DHT22;14792;50.886;6.468;2022-10-31T07:40:51;13.00;99.90
27306;DHT22;14792;50.886;6.468;2022-10-31T07:43:52;13.00;99.90
27306;DHT22;14792;50.886;6.468;2022-10-31T07:46:54;13.00;99.90
27306;DHT22;14792;50.886;6.468;2022-10-31T07:49:58;13.00;99.90
27306;DHT22;14792;50.886;6.468;2022-10-31T07:53:03;13.00;99.90
27306;DHT22;14792;50.886;6.468;2022-10-31T07:56:04;13.10;99.90
27306;DHT22;14792;50.886;6.468;2022-10-31T07:59:05;13.10;99.90
27306;DHT22;14792;50.886;6.468;2022-10-31T08:02:07;13.10;99.90
27306;DHT22;14792;50.886;6.468;2022-10-31T08:05:09;13.10;99.90
27306;DHT22;14792;50.886;6.468;2022-10-31T08:08:10;13.10;99.90
27306;DHT22;14792;50.886;6.468;2022-10-31T08:11:12;13.20;99.90
27306;DHT22;14792;50.886;6.468;2022-10-31T08:14:13;13.20;99.90
27306;DHT22;14792;50.886;6.468;2022-10-31T08:17:15;13.30;99.90
27306;DHT22;14792;50.886;6.468;2022-10-31T08:20:17;13.30;99.90
27306;DHT22;14792;50.886;6.468;2022-10-31T08:23:18;13.30;99.90
27306;DHT22;14792;50.886;6.468;2022-10-31T08:26:20;13.30;99.90
27306;DHT22;14792;50.886;6.468;2022-10-31T08:29:21;13.40;99.90
27306;DHT22;14792;50.886;6.468;2022-10-31T08:32:23;13.50;99.90
27306;DHT22;14792;50.886;6.468;2022-10-31T08:35:26;13.60;99.90
27306;DHT22;14792;50.886;6.468;2022-10-31T08:38:28;13.70;99.90
27306;DHT22;14792;50.886;6.468;2022-10-31T08:41:29;13.80;99.90
27306;DHT22;14792;50.886;6.468;2022-10-31T08:44:31;13.80;99.90
27306;DHT22;14792;50.886;6.468;2022-10-31T08:47:33;13.90;99.90
27306;DHT22;14792;50.886;6.468;2022-10-31T08:50:34;13.90;99.90
27306;DHT22;14792;50.886;6.468;2022-10-31T08:53:36;14.00;99.90
27306;DHT22;14792;50.886;6.468;2022-10-31T08:56:38;14.00;99.90
27306;DHT22;14792;50.886;6.468;2022-10-31T08:59:39;14.00;99.90
27306;DHT22;14792;50.886;6.468;2022-10-31T09:02:41;14.00;99.90
27306;DHT22;14792;50.886;6.468;2022-10-31T09:05:43;14.10;99.90
27306;DHT22;14792;50.886;6.468;2022-10-31T09:08:44;14.20;99.90
27306;DHT22;14792;50.886;6.468;2022-10-31T09:11:46;14.20;99.90
27306;DHT22;14792;50.886;6.468;2022-10-31T09:14:48;14.20;99.90
27306;DHT22;14792;50.886;6.468;2022-10-31T09:17:49;14.20;99.90
27306;DHT22;14792;50.886;6.468;2022-10-31T09:20:51;14.30;99.90
27306;DHT22;14792;50.886;6.468;2022-10-31T09:23:53;14.30;99.90
27306;DHT22;14792;50.886;6.468;2022-10-31T09:26:54;14.40;99.90
27306;DHT22;14792;50.886;6.468;2022-10-31T09:29:56;14.20;99.90
27306;DHT22;14792;50.886;6.468;2022-10-31T09:33:05;14.10;99.90
27306;DHT22;14792;50.886;6.468;2022-10-31T09:36:05;14.20;99.90
27306;DHT22;14792;50.886;6.468;2022-10-31T09:39:07;14.20;99.90
27306;DHT22;14792;50.886;6.468;2022-10-31T09:52:24;14.40;99.90
27306;DHT22;14792;50.886;6.468;2022-10-31T09:55:25;14.40;99.90
27306;DHT22;14792;50.886;6.468;2022-10-31T09:58:24;14.50;99.90
27306;DHT22;14792;50.886;6.468;2022-10-31T10:04:43;14.80;99.90
27306;DHT22;14792;50.886;6.468;2022-10-31T10:11:06;14.90;99.90
27306;DHT22;14792;50.886;6.468;2022-10-31T10:17:37;15.10;99.90
27306;DHT22;14792;50.886;6.468;2022-10-31T10:20:43;15.20;99.90
27306;DHT22;14792;50.886;6.468;2022-10-31T10:24:17;15.30;99.90
27306;DHT22;14792;50.886;6.468;2022-10-31T10:30:17;15.50;99.90
27306;DHT22;14792;50.886;6.468;2022-10-31T10:36:46;15.80;99.90
27306;DHT22;14792;50.886;6.468;2022-10-31T10:39:45;16.00;99.90
27306;DHT22;14792;50.886;6.468;2022-10-31T10:49:50;18.00;99.90
27306;DHT22;14792;50.886;6.468;2022-10-31T10:52:53;17.60;99.90
27306;DHT22;14792;50.886;6.468;2022-10-31T10:59:00;17.40;99.90
27306;DHT22;14792;50.886;6.468;2022-10-31T11:02:02;17.30;99.90
27306;DHT22;14792;50.886;6.468;2022-10-31T11:05:03;17.30;99.90
27306;DHT22;14792;50.886;6.468;2022-10-31T11:08:05;17.40;99.90
27306;DHT22;14792;50.886;6.468;2022-10-31T11:11:30;17.50;99.90
27306;DHT22;14792;50.886;6.468;2022-10-31T11:14:29;17.30;99.90
27306;DHT22;14792;50.886;6.468;2022-10-31T11:17:35;17.40;99.90
27306;DHT22;14792;50.886;6.468;2022-10-31T11:20:35;17.30;99.90
27306;DHT22;14792;50.886;6.468;2022-10-31T11:23:37;17.40;99.90
27306;DHT22;14792;50.886;6.468;2022-10-31T11:26:39;17.30;99.90
27306;DHT22;14792;50.886;6.468;2022-10-31T11:29:40;17.30;99.90
27306;DHT22;14792;50.886;6.468;2022-10-31T11:32:47;17.30;99.90
27306;DHT22;14792;50.886;6.468;2022-10-31T11:35:46;17.40;99.90
27306;DHT22;14792;50.886;6.468;2022-10-31T11:38:47;17.50;99.90
27306;DHT22;14792;50.886;6.468;2022-10-31T11:41:50;17.50;99.90
27306;DHT22;14792;50.886;6.468;2022-10-31T11:44:51;17.70;99.90
27306;DHT22;14792;50.886;6.468;2022-10-31T11:47:53;17.60;99.90
27306;DHT22;14792;50.886;6.468;2022-10-31T11:50:55;17.70;99.90
27306;DHT22;14792;50.886;6.468;2022-10-31T11:53:57;17.70;99.90
27306;DHT22;14792;50.886;6.468;2022-10-31T11:56:58;17.60;99.90
27306;DHT22;14792;50.886;6.468;2022-10-31T12:00:00;17.60;99.90
27306;DHT22;14792;50.886;6.468;2022-10-31T12:03:24;17.60;99.90
27306;DHT22;14792;50.886;6.468;2022-10-31T12:06:21;17.40;99.90
27306;DHT22;14792;50.886;6.468;2022-10-31T12:15:46;17.50;99.90
27306;DHT22;14792;50.886;6.468;2022-10-31T12:22:02;17.60;99.90
27306;DHT22;14792;50.886;6.468;2022-10-31T12:25:14;17.50;99.90
27306;DHT22;14792;50.886;6.468;2022-10-31T12:31:47;17.40;99.90
27306;DHT22;14792;50.886;6.468;2022-10-31T13:00:25;17.10;99.90
27306;DHT22;14792;50.886;6.468;2022-10-31T13:03:30;17.20;99.90
27306;DHT22;14792;50.886;6.468;2022-10-31T13:06:30;17.30;99.90
27306;DHT22;14792;50.886;6.468;2022-10-31T13:09:35;17.10;99.90
27306;DHT22;14792;50.886;6.468;2022-10-31T13:12:35;17.10;99.90
27306;DHT22;14792;50.886;6.468;2022-10-31T13:15:43;17.10;99.90
27306;DHT22;14792;50.886;6.468;2022-10-31T13:18:54;17.10;99.90
27306;DHT22;14792;50.886;6.468;2022-10-31T13:25:02;17.00;99.90
27306;DHT22;14792;50.886;6.468;2022-10-31T13:28:05;16.90;99.90
27306;DHT22;14792;50.886;6.468;2022-10-31T13:31:03;16.90;99.90
27306;DHT22;14792;50.886;6.468;2022-10-31T13:34:04;16.90;99.90
27306;DHT22;14792;50.886;6.468;2022-10-31T13:40:50;16.90;99.90
27306;DHT22;14792;50.886;6.468;2022-10-31T13:47:28;16.90;99.90
27306;DHT22;14792;50.886;6.468;2022-10-31T13:50:30;16.90;99.90
27306;DHT22;14792;50.886;6.468;2022-10-31T13:56:54;16.90;99.90
27306;DHT22;14792;50.886;6.468;2022-10-31T14:00:00;16.90;99.90
27306;DHT22;14792;50.886;6.468;2022-10-31T14:03:00;16.90;99.90
27306;DHT22;14792;50.886;6.468;2022-10-31T14:06:02;16.90;99.90
27306;DHT22;14792;50.886;6.468;2022-10-31T14:09:03;16.90;99.90
27306;DHT22;14792;50.886;6.468;2022-10-31T14:12:09;16.90;99.90
27306;DHT22;14792;50.886;6.468;2022-10-31T14:15:22;16.80;99.90
27306;DHT22;14792;50.886;6.468;2022-10-31T14:18:24;16.90;99.90
27306;DHT22;14792;50.886;6.468;2022-10-31T14:27:32;17.00;99.90
27306;DHT22;14792;50.886;6.468;2022-10-31T14:30:33;17.00;99.90
27306;DHT22;14792;50.886;6.468;2022-10-31T14:33:32;17.00;99.90
27306;DHT22;14792;50.886;6.468;2022-10-31T14:49:50;17.30;99.90
27306;DHT22;14792;50.886;6.468;2022-10-31T14:52:48;17.30;99.90
27306;DHT22;14792;50.886;6.468;2022-10-31T14:55:48;17.20;99.90
27306;DHT22;14792;50.886;6.468;2022-10-31T14:58:49;17.20;99.90
27306;DHT22;14792;50.886;6.468;2022-10-31T15:02:17;17.20;99.90
27306;DHT22;14792;50.886;6.468;2022-10-31T15:04:57;17.10;99.90
27306;DHT22;14792;50.886;6.468;2022-10-31T15:07:59;17.00;99.90
27306;DHT22;14792;50.886;6.468;2022-10-31T15:11:13;17.10;99.90
27306;DHT22;14792;50.886;6.468;2022-10-31T15:14:20;17.10;99.90
27306;DHT22;14792;50.886;6.468;2022-10-31T15:17:13;17.00;99.90
27306;DHT22;14792;50.886;6.468;2022-10-31T15:20:18;17.00;99.90
27306;DHT22;14792;50.886;6.468;2022-10-31T15:23:28;17.00;99.90
27306;DHT22;14792;50.886;6.468;2022-10-31T15:26:32;17.10;99.90
27306;DHT22;14792;50.886;6.468;2022-10-31T15:29:30;17.10;99.90
27306;DHT22;14792;50.886;6.468;2022-10-31T15:32:32;17.10;99.90
27306;DHT22;14792;50.886;6.468;2022-10-31T15:35:33;17.10;99.90
27306;DHT22;14792;50.886;6.468;2022-10-31T15:38:35;17.10;99.90
27306;DHT22;14792;50.886;6.468;2022-10-31T15:41:53;17.10;99.90
27306;DHT22;14792;50.886;6.468;2022-10-31T15:45:15;17.00;99.90
27306;DHT22;14792;50.886;6.468;2022-10-31T15:48:17;16.90;99.90
27306;DHT22;14792;50.886;6.468;2022-10-31T15:51:15;16.90;99.90
27306;DHT22;14792;50.886;6.468;2022-10-31T15:54:16;16.90;99.90
27306;DHT22;14792;50.886;6.468;2022-10-31T15:57:18;16.80;99.90
27306;DHT22;14792;50.886;6.468;2022-10-31T16:00:24;16.80;99.90
27306;DHT22;14792;50.886;6.468;2022-10-31T16:03:26;16.80;99.90
27306;DHT22;14792;50.886;6.468;2022-10-31T16:06:27;16.80;99.90
27306;DHT22;14792;50.886;6.468;2022-10-31T16:09:29;16.70;99.90
27306;DHT22;14792;50.886;6.468;2022-10-31T16:12:36;16.60;99.90
27306;DHT22;14792;50.886;6.468;2022-10-31T16:15:37;16.60;99.90
27306;DHT22;14792;50.886;6.468;2022-10-31T16:18:39;16.60;99.90
27306;DHT22;14792;50.886;6.468;2022-10-31T16:21:40;16.60;99.90
27306;DHT22;14792;50.886;6.468;2022-10-31T16:24:46;16.60;99.90
27306;DHT22;14792;50.886;6.468;2022-10-31T16:27:52;16.60;99.90
27306;DHT22;14792;50.886;6.468;2022-10-31T16:30:54;16.50;99.90
27306;DHT22;14792;50.886;6.468;2022-10-31T16:34:02;16.40;99.90
27306;DHT22;14792;50.886;6.468;2022-10-31T16:37:03;16.40;99.90
27306;DHT22;14792;50.886;6.468;2022-10-31T16:40:04;16.40;99.90
27306;DHT22;14792;50.886;6.468;2022-10-31T16:43:12;16.30;99.90
27306;DHT22;14792;50.886;6.468;2022-10-31T16:46:19;16.30;99.90
27306;DHT22;14792;50.886;6.468;2022-10-31T16:49:17;16.30;99.90
27306;DHT22;14792;50.886;6.468;2022-10-31T16:52:19;16.30;99.90
27306;DHT22;14792;50.886;6.468;2022-10-31T16:55:20;16.30;99.90
27306;DHT22;14792;50.886;6.468;2022-10-31T16:58:28;16.20;99.90
27306;DHT22;14792;50.886;6.468;2022-10-31T17:01:30;16.10;99.90
27306;DHT22;14792;50.886;6.468;2022-10-31T17:04:31;16.10;99.90
27306;DHT22;14792;50.886;6.468;2022-10-31T17:07:33;16.10;99.90
27306;DHT22;14792;50.886;6.468;2022-10-31T17:10:34;16.00;99.90
27306;DHT22;14792;50.886;6.468;2022-10-31T17:13:36;16.00;99.90
27306;DHT22;14792;50.886;6.468;2022-10-31T17:16:37;15.90;99.90
27306;DHT22;14792;50.886;6.468;2022-10-31T17:19:39;15.90;99.90
27306;DHT22;14792;50.886;6.468;2022-10-31T17:22:41;15.80;99.90
27306;DHT22;14792;50.886;6.468;2022-10-31T17:25:42;15.80;99.90
27306;DHT22;14792;50.886;6.468;2022-10-31T17:28:44;15.70;99.90
27306;DHT22;14792;50.886;6.468;2022-10-31T17:31:45;15.70;99.90
27306;DHT22;14792;50.886;6.468;2022-10-31T17:34:47;15.70;99.90
27306;DHT22;14792;50.886;6.468;2022-10-31T17:37:49;15.60;99.90
27306;DHT22;14792;50.886;6.468;2022-10-31T17:40:50;15.60;99.90
27306;DHT22;14792;50.886;6.468;2022-10-31T17:43:56;15.50;99.90
27306;DHT22;14792;50.886;6.468;2022-10-31T17:46:57;15.40;99.90
27306;DHT22;14792;50.886;6.468;2022-10-31T17:49:59;15.40;99.90
27306;DHT22;14792;50.886;6.468;2022-10-31T17:53:00;15.30;99.90
27306;DHT22;14792;50.886;6.468;2022-10-31T17:56:06;15.30;99.90
27306;DHT22;14792;50.886;6.468;2022-10-31T17:59:04;15.20;99.90
27306;DHT22;14792;50.886;6.468;2022-10-31T18:02:05;15.20;99.90
27306;DHT22;14792;50.886;6.468;2022-10-31T18:05:07;15.10;99.90
27306;DHT22;14792;50.886;6.468;2022-10-31T18:08:08;15.10;99.90
27306;DHT22;14792;50.886;6.468;2022-10-31T18:11:11;15.10;99.90
27306;DHT22;14792;50.886;6.468;2022-10-31T18:14:12;15.10;99.90
27306;DHT22;14792;50.886;6.468;2022-10-31T18:17:13;15.10;99.90
27306;DHT22;14792;50.886;6.468;2022-10-31T18:20:15;15.10;99.90
27306;DHT22;14792;50.886;6.468;2022-10-31T18:23:16;15.10;99.90
27306;DHT22;14792;50.886;6.468;2022-10-31T18:26:18;15.20;99.90
27306;DHT22;14792;50.886;6.468;2022-10-31T18:29:20;15.20;99.90
27306;DHT22;14792;50.886;6.468;2022-10-31T18:32:21;15.20;99.90
27306;DHT22;14792;50.886;6.468;2022-10-31T18:35:23;15.10;99.90
27306;DHT22;14792;50.886;6.468;2022-10-31T18:38:26;15.10;99.90
27306;DHT22;14792;50.886;6.468;2022-10-31T18:41:28;15.10;99.90
27306;DHT22;14792;50.886;6.468;2022-10-31T18:44:30;15.00;99.90
27306;DHT22;14792;50.886;6.468;2022-10-31T18:47:32;14.90;99.90
27306;DHT22;14792;50.886;6.468;2022-10-31T18:50:33;14.90;99.90
27306;DHT22;14792;50.886;6.468;2022-10-31T18:53:35;14.80;99.90
27306;DHT22;14792;50.886;6.468;2022-10-31T18:56:36;14.80;99.90
27306;DHT22;14792;50.886;6.468;2022-10-31T18:59:38;14.80;99.90
27306;DHT22;14792;50.886;6.468;2022-10-31T19:02:39;14.80;99.90
27306;DHT22;14792;50.886;6.468;2022-10-31T19:05:41;14.80;99.90
27306;DHT22;14792;50.886;6.468;2022-10-31T19:08:43;14.80;99.90
27306;DHT22;14792;50.886;6.468;2022-10-31T19:11:44;14.80;99.90
27306;DHT22;14792;50.886;6.468;2022-10-31T19:14:46;14.70;99.90
27306;DHT22;14792;50.886;6.468;2022-10-31T19:17:47;14.60;99.90
27306;DHT22;14792;50.886;6.468;2022-10-31T19:20:49;14.60;99.90
27306;DHT22;14792;50.886;6.468;2022-10-31T19:23:51;14.50;99.90
27306;DHT22;14792;50.886;6.468;2022-10-31T19:26:52;14.50;99.90
27306;DHT22;14792;50.886;6.468;2022-10-31T19:29:54;14.40;99.90
27306;DHT22;14792;50.886;6.468;2022-10-31T19:32:56;14.40;99.90
27306;DHT22;14792;50.886;6.468;2022-10-31T19:36:01;14.40;99.90
27306;DHT22;14792;50.886;6.468;2022-10-31T19:39:02;14.40;99.90
27306;DHT22;14792;50.886;6.468;2022-10-31T19:42:03;14.40;99.90
27306;DHT22;14792;50.886;6.468;2022-10-31T19:45:05;14.30;99.90
27306;DHT22;14792;50.886;6.468;2022-10-31T19:48:07;14.30;99.90
27306;DHT22;14792;50.886;6.468;2022-10-31T19:51:09;14.20;99.90
27306;DHT22;14792;50.886;6.468;2022-10-31T19:54:10;14.20;99.90
27306;DHT22;14792;50.886;6.468;2022-10-31T19:57:12;14.10;99.90
27306;DHT22;14792;50.886;6.468;2022-10-31T20:00:13;14.10;99.90
27306;DHT22;14792;50.886;6.468;2022-10-31T20:03:15;14.10;99.90
27306;DHT22;14792;50.886;6.468;2022-10-31T20:06:24;14.10;99.90
27306;DHT22;14792;50.886;6.468;2022-10-31T20:09:24;14.10;99.90
27306;DHT22;14792;50.886;6.468;2022-10-31T20:12:26;14.10;99.90
27306;DHT22;14792;50.886;6.468;2022-10-31T20:15:28;14.10;99.90
27306;DHT22;14792;50.886;6.468;2022-10-31T20:18:29;14.10;99.90
27306;DHT22;14792;50.886;6.468;2022-10-31T20:21:32;14.10;99.90
27306;DHT22;14792;50.886;6.468;2022-10-31T20:24:32;14.10;99.90
27306;DHT22;14792;50.886;6.468;2022-10-31T20:27:34;14.20;99.90
27306;DHT22;14792;50.886;6.468;2022-10-31T20:30:36;14.30;99.90
27306;DHT22;14792;50.886;6.468;2022-10-31T20:33:37;14.30;99.90
27306;DHT22;14792;50.886;6.468;2022-10-31T20:36:39;14.20;99.90
27306;DHT22;14792;50.886;6.468;2022-10-31T20:39:40;14.20;99.90
27306;DHT22;14792;50.886;6.468;2022-10-31T20:42:42;14.20;99.90
27306;DHT22;14792;50.886;6.468;2022-10-31T20:45:44;14.10;99.90
27306;DHT22;14792;50.886;6.468;2022-10-31T20:48:45;14.10;99.90
27306;DHT22;14792;50.886;6.468;2022-10-31T20:51:47;14.10;99.90
27306;DHT22;14792;50.886;6.468;2022-10-31T20:54:48;14.10;99.90
27306;DHT22;14792;50.886;6.468;2022-10-31T20:57:50;14.10;99.90
27306;DHT22;14792;50.886;6.468;2022-10-31T21:00:52;14.10;99.90
27306;DHT22;14792;50.886;6.468;2022-10-31T21:03:54;14.10;99.90
27306;DHT22;14792;50.886;6.468;2022-10-31T21:06:57;14.10;99.90
27306;DHT22;14792;50.886;6.468;2022-10-31T21:09:59;13.90;99.90
27306;DHT22;14792;50.886;6.468;2022-10-31T21:13:00;14.00;99.90
27306;DHT22;14792;50.886;6.468;2022-10-31T21:16:03;14.10;99.90
27306;DHT22;14792;50.886;6.468;2022-10-31T21:19:04;14.20;99.90
27306;DHT22;14792;50.886;6.468;2022-10-31T21:22:05;14.30;99.90
27306;DHT22;14792;50.886;6.468;2022-10-31T21:25:06;14.30;99.90
27306;DHT22;14792;50.886;6.468;2022-10-31T21:28:09;14.20;99.90
27306;DHT22;14792;50.886;6.468;2022-10-31T21:31:10;14.20;99.90